Time;durP1;ratioP1;P1;durP2;ratioP2;P2;SDS_P1;SDS_P2;PMS_P1;PMS_P2;Temp;Humidity;BMP_temperature;BMP_pressure;BME280_temperature;BME280_humidity;BME280_pressure;Samples;Min_cycle;Max_cycle;Signal;HPM_P1;HPM_P2
2023/06/13 00:00:51;;;;;;;7.00;3.55;;;;;;;;;;5057933;28;20040;-84
2023/06/13 00:03:19;;;;;;;9.30;3.80;;;19.60;55.80;;;;;;5040917;28;20072;-85
2023/06/13 00:05:46;;;;;;;7.00;3.97;;;19.60;55.90;;;;;;5073942;28;20055;-85
2023/06/13 00:08:21;;;;;;;9.85;4.15;;;19.70;56.20;;;;;;5057405;28;20412;-84
2023/06/13 00:10:47;;;;;;;7.18;3.13;;;19.80;57.60;;;;;;5057331;28;20060;-84
2023/06/13 00:13:18;;;;;;;6.47;3.58;;;19.60;56.40;;;;;;5057266;28;20078;-85
2023/06/13 00:15:56;;;;;;;5.47;4.45;;;19.20;56.80;;;;;;5057176;28;20485;-85
2023/06/13 00:18:23;;;;;;;4.32;3.42;;;19.50;56.90;;;;;;5057063;28;20045;-84
2023/06/13 00:20:50;;;;;;;8.93;3.85;;;19.50;54.60;;;;;;5073777;28;20480;-86
2023/06/13 00:23:16;;;;;;;8.30;4.05;;;;;;;;;;5057279;28;20041;-85
2023/06/13 00:25:43;;;;;;;6.78;3.38;;;;;;;;;;5056887;28;20070;-85
2023/06/13 00:28:10;;;;;;;4.55;3.67;;;;;;;;;;5056907;28;20129;-83
2023/06/13 00:30:36;;;;;;;4.28;3.63;;;;;;;;;;5040697;28;20040;-84
2023/06/13 00:33:04;;;;;;;5.70;3.65;;;;;;;;;;5056965;28;20041;-84
2023/06/13 00:35:30;;;;;;;5.68;3.75;;;;;;;;;;5057389;28;20056;-84
2023/06/13 00:37:56;;;;;;;18.80;3.92;;;19.20;58.20;;;;;;5039823;28;20104;-82
2023/06/13 00:40:23;;;;;;;7.25;3.63;;;;;;;;;;5057005;28;20055;-82
2023/06/13 00:42:53;;;;;;;6.32;3.47;;;19.20;58.90;;;;;;5056644;28;20053;-83
2023/06/13 00:45:27;;;;;;;7.13;4.18;;;19.20;54.70;;;;;;5056410;28;20052;-83
2023/06/13 00:47:57;;;;;;;5.38;3.65;;;19.10;56.20;;;;;;5073390;28;20057;-83
2023/06/13 00:50:30;;;;;;;5.53;3.67;;;19.20;56.30;;;;;;5040327;28;20044;-83
2023/06/13 00:52:58;;;;;;;5.53;3.72;;;19.20;59.20;;;;;;5073445;28;20139;-85
2023/06/13 00:55:25;;;;;;;11.30;3.38;;;19.00;56.50;;;;;;5056374;28;20051;-83
2023/06/13 00:57:55;;;;;;;6.38;3.78;;;18.80;56.70;;;;;;5056369;28;20524;-86
2023/06/13 01:00:30;;;;;;;5.85;3.53;;;18.90;59.30;;;;;;5072963;28;20044;-84
2023/06/13 01:02:58;;;;;;;5.70;3.60;;;19.00;59.40;;;;;;5073171;28;20519;-83
2023/06/13 01:05:31;;;;;;;5.43;3.67;;;;;;;;;;5056297;28;20045;-83
2023/06/13 01:08:01;;;;;;;8.18;4.00;;;18.80;55.90;;;;;;5056223;28;20048;-84
2023/06/13 01:10:29;;;;;;;10.15;3.58;;;18.80;57.20;;;;;;5056078;28;20527;-83
2023/06/13 01:13:28;;;;;;;4.00;3.53;;;18.80;58.00;;;;;;5040091;28;20401;-84
2023/06/13 01:15:54;;;;;;;5.68;4.30;;;;;;;;;;5055991;28;20055;-83
2023/06/13 01:18:24;;;;;;;6.18;3.90;;;18.70;57.80;;;;;;5072811;28;20131;-84
2023/06/13 01:20:56;;;;;;;7.22;4.43;;;18.60;58.00;;;;;;5072735;28;20583;-84
2023/06/13 01:23:37;;;;;;;7.20;4.13;;;18.70;60.90;;;;;;5056461;28;20051;-91
2023/06/13 01:26:25;;;;;;;7.57;4.07;;;18.60;57.90;;;;;;5073099;28;20052;-91
2023/06/13 01:28:52;;;;;;;10.02;4.22;;;;;;;;;;5056524;28;20551;-89
2023/06/13 01:31:21;;;;;;;6.45;4.38;;;18.40;58.60;;;;;;5056686;28;20048;-91
2023/06/13 01:33:47;;;;;;;6.97;4.72;;;18.60;61.70;;;;;;5072563;28;20044;-90
2023/06/13 01:36:14;;;;;;;4.70;4.20;;;;;;;;;;5072840;28;20512;-91
2023/06/13 01:38:40;;;;;;;7.13;4.20;;;;;;;;;;5039561;28;20493;-90
2023/06/13 01:41:06;;;;;;;5.80;4.32;;;;;;;;;;5055844;28;20105;-84
2023/06/13 01:43:32;;;;;;;10.95;4.63;;;;;;;;;;5055960;28;20076;-86
2023/06/13 01:46:12;;;;;;;5.90;4.93;;;18.30;62.60;;;;;;5056535;28;20048;-84
2023/06/13 01:48:54;;;;;;;10.00;4.60;;;18.20;62.40;;;;;;5055841;28;20094;-84
2023/06/13 01:51:47;;;;;;;5.85;4.68;;;18.30;58.80;;;;;;5072371;28;20040;-83
2023/06/13 01:54:17;;;;;;;9.95;4.43;;;18.30;59.90;;;;;;5055893;28;20431;-83
2023/06/13 01:56:47;;;;;;;8.45;4.63;;;18.10;60.00;;;;;;5056030;28;20040;-83
2023/06/13 01:59:15;;;;;;;5.32;4.28;;;18.20;60.10;;;;;;5055941;28;20049;-87
2023/06/13 02:01:43;;;;;;;4.90;3.95;;;18.20;60.50;;;;;;5072441;28;20547;-84
2023/06/13 02:04:09;;;;;;;5.10;4.60;;;;;;;;;;5056058;28;20489;-85
2023/06/13 02:06:36;;;;;;;6.60;4.75;;;;;;;;;;5072571;28;20048;-83
2023/06/13 02:09:03;;;;;;;8.25;4.40;;;;;;;;;;5072398;28;20055;-85
2023/06/13 02:11:29;;;;;;;9.98;4.68;;;;;;;;;;5039319;28;20047;-84
2023/06/13 02:13:55;;;;;;;6.65;4.53;;;18.00;65.90;;;;;;5055595;28;20052;-88
2023/06/13 02:16:25;;;;;;;9.20;4.90;;;;;;;;;;5038736;28;20037;-86
2023/06/13 02:18:53;;;;;;;7.70;5.65;;;17.90;65.50;;;;;;5055777;28;20052;-83
2023/06/13 02:21:19;;;;;;;12.70;5.15;;;;;;;;;;5055517;28;20044;-83
2023/06/13 02:23:46;;;;;;;9.48;4.75;;;;;;;;;;5072206;28;20048;-84
2023/06/13 02:26:12;;;;;;;5.57;4.82;;;17.70;64.80;;;;;;5038957;28;20040;-84
2023/06/13 02:28:39;;;;;;;7.15;4.97;;;18.00;65.30;;;;;;5055328;28;20126;-83
2023/06/13 02:31:05;;;;;;;7.88;5.25;;;17.30;65.20;;;;;;5022223;28;20041;-83
2023/06/13 02:33:31;;;;;;;9.40;4.95;;;;;;;;;;5038571;28;20040;-83
2023/06/13 02:35:57;;;;;;;6.10;4.75;;;;;;;;;;5055191;28;20476;-82
2023/06/13 02:38:24;;;;;;;7.72;5.32;;;;;;;;;;5055058;28;20051;-83
2023/06/13 02:40:50;;;;;;;8.05;4.60;;;17.30;66.40;;;;;;5038789;28;20086;-83
2023/06/13 02:43:16;;;;;;;10.07;5.18;;;;;;;;;;5073044;28;20045;-83
2023/06/13 02:45:42;;;;;;;7.63;5.28;;;;;;;;;;5038098;28;20048;-84
2023/06/13 02:48:08;;;;;;;11.27;4.88;;;17.30;68.00;;;;;;5055134;28;20041;-84
2023/06/13 02:50:33;;;;;;;13.25;4.63;;;17.20;67.50;;;;;;5022100;28;20516;-84
2023/06/13 02:52:59;;;;;;;7.05;4.20;;;;;;;;;;5038385;28;20409;-83
2023/06/13 02:55:28;;;;;;;10.48;5.13;;;;;;;;;;5055242;28;20420;-82
2023/06/13 02:57:54;;;;;;;6.68;4.28;;;16.80;69.60;;;;;;5071574;28;20037;-87
2023/06/13 03:00:20;;;;;;;9.00;4.40;;;;;;;;;;5056509;28;20048;-83
2023/06/13 03:02:47;;;;;;;7.97;4.82;;;;;;;;;;5058698;28;20041;-85
2023/06/13 03:05:16;;;;;;;5.00;4.45;;;16.90;65.20;;;;;;5058596;28;20409;-83
2023/06/13 03:07:46;;;;;;;9.95;4.68;;;16.90;66.00;;;;;;5042636;28;20040;-82
2023/06/13 03:10:13;;;;;;;5.57;4.40;;;17.00;69.60;;;;;;5059248;28;20049;-82
2023/06/13 03:12:40;;;;;;;6.55;4.13;;;16.80;66.30;;;;;;5058600;28;20501;-83
2023/06/13 03:15:07;;;;;;;8.77;4.57;;;16.90;69.90;;;;;;5074975;28;20086;-83
2023/06/13 03:17:33;;;;;;;14.68;4.90;;;;;;;;;;5058335;28;20191;-84
2023/06/13 03:19:59;;;;;;;7.32;4.22;;;;;;;;;;5075504;28;20048;-91
2023/06/13 03:22:26;;;;;;;8.02;4.57;;;;;;;;;;5058990;28;20468;-85
2023/06/13 03:24:52;;;;;;;8.75;5.03;;;;;;;;;;5075441;28;20131;-91
2023/06/13 03:27:19;;;;;;;4.90;4.00;;;;;;;;;;5076971;28;20178;-87
2023/06/13 03:29:45;;;;;;;8.52;4.25;;;;;;;;;;5075582;28;20049;-91
2023/06/13 03:32:11;;;;;;;5.63;4.43;;;16.60;66.00;;;;;;5059109;28;20060;-87
2023/06/13 03:34:39;;;;;;;5.38;3.83;;;16.60;70.50;;;;;;5058913;28;20052;-88
2023/06/13 03:37:08;;;;;;;6.78;4.25;;;;;;;;;;5058563;28;20041;-88
2023/06/13 03:39:35;;;;;;;6.80;4.68;;;;;;;;;;5075683;28;20043;-85
2023/06/13 03:42:01;;;;;;;6.07;4.57;;;16.40;66.90;;;;;;5075642;28;20036;-87
2023/06/13 03:44:28;;;;;;;6.20;4.63;;;16.50;67.10;;;;;;5075747;28;20048;-89
2023/06/13 03:46:58;;;;;;;8.15;4.63;;;;;;;;;;5058182;28;20041;-90
2023/06/13 03:49:24;;;;;;;5.20;4.30;;;;;;;;;;5074750;28;20102;-89
2023/06/13 03:51:53;;;;;;;6.22;3.78;;;;;;;;;;5058980;28;20385;-88
2023/06/13 03:54:21;;;;;;;6.43;3.97;;;16.40;70.20;;;;;;5078049;28;20072;-88
2023/06/13 03:56:47;;;;;;;4.43;4.03;;;;;;;;;;5042720;28;20064;-85
2023/06/13 03:59:13;;;;;;;9.13;4.30;;;16.50;70.30;;;;;;5075204;28;20041;-84
2023/06/13 04:01:41;;;;;;;6.10;4.47;;;;;;;;;;5077973;28;20508;-83
2023/06/13 04:04:08;;;;;;;6.68;4.25;;;16.50;65.90;;;;;;5076170;28;20119;-85
2023/06/13 04:06:34;;;;;;;8.65;5.03;;;;;;;;;;5075342;28;20123;-85
2023/06/13 04:09:03;;;;;;;6.38;4.68;;;;;;;;;;5075225;28;20056;-90
2023/06/13 04:11:30;;;;;;;9.90;4.85;;;;;;;;;;5056995;28;20051;-88
2023/06/13 04:13:56;;;;;;;5.68;4.70;;;;;;;;;;5075040;28;20111;-84
2023/06/13 04:16:22;;;;;;;6.22;4.20;;;;;;;;;;5076488;28;20051;-88
2023/06/13 04:18:48;;;;;;;7.13;5.00;;;;;;;;;;5058176;28;20036;-85
2023/06/13 04:21:14;;;;;;;6.80;4.65;;;;;;;;;;5075130;28;20087;-83
2023/06/13 04:23:41;;;;;;;4.93;4.18;;;;;;;;;;5076002;28;20052;-86
2023/06/13 04:26:07;;;;;;;10.82;4.63;;;16.30;69.50;;;;;;5059325;28;20048;-83
2023/06/13 04:28:35;;;;;;;9.02;3.80;;;16.50;66.10;;;;;;5059157;28;20048;-83
2023/06/13 04:31:03;;;;;;;5.97;4.05;;;;;;;;;;5075188;28;20041;-85
2023/06/13 04:33:29;;;;;;;7.35;4.30;;;;;;;;;;5074136;28;20048;-86
2023/06/13 04:36:03;;;;;;;8.02;5.15;;;;;;;;;;5057467;28;20405;-87
2023/06/13 04:38:34;;;;;;;5.78;4.10;;;;;;;;;;5056890;28;20044;-87
2023/06/13 04:41:00;;;;;;;7.45;4.38;;;;;;;;;;5057747;28;20048;-83
2023/06/13 04:43:28;;;;;;;6.35;5.10;;;;;;;;;;5057055;28;20401;-84
2023/06/13 04:46:02;;;;;;;8.60;4.20;;;;;;;;;;5040602;28;20057;-86
2023/06/13 04:48:28;;;;;;;5.75;4.53;;;;;;;;;;5057460;28;20045;-86
2023/06/13 04:50:54;;;;;;;6.72;4.55;;;;;;;;;;5056897;28;20044;-88
2023/06/13 04:53:23;;;;;;;6.35;4.35;;;;;;;;;;5074483;28;20396;-84
2023/06/13 04:55:49;;;;;;;6.32;4.50;;;16.50;70.00;;;;;;5056613;28;20520;-85
2023/06/13 04:58:17;;;;;;;7.78;4.97;;;;;;;;;;5039960;28;20055;-84
2023/06/13 05:00:48;;;;;;;8.30;4.55;;;16.50;69.40;;;;;;5056403;28;20048;-84
2023/06/13 05:03:21;;;;;;;4.07;3.67;;;16.50;65.30;;;;;;5040674;28;20083;-84
2023/06/13 05:05:48;;;;;;;6.65;4.55;;;16.40;70.20;;;;;;5041301;28;20055;-85
2023/06/13 05:08:19;;;;;;;8.43;4.50;;;16.60;66.20;;;;;;5056714;28;20052;-83
2023/06/13 05:10:45;;;;;;;7.00;4.88;;;;;;;;;;5073806;28;20044;-84
2023/06/13 05:13:11;;;;;;;7.50;4.30;;;;;;;;;;5040456;28;20041;-84
2023/06/13 05:15:38;;;;;;;5.78;4.28;;;16.70;67.40;;;;;;5056452;28;20070;-84
2023/06/13 05:18:06;;;;;;;8.80;4.70;;;;;;;;;;5056809;28;20040;-83
2023/06/13 05:20:35;;;;;;;7.95;4.53;;;16.80;67.60;;;;;;5072993;28;20053;-84
2023/06/13 05:23:01;;;;;;;5.70;4.65;;;;;;;;;;5056562;28;20105;-83
2023/06/13 05:25:28;;;;;;;6.63;4.60;;;16.80;67.10;;;;;;5073787;28;20131;-84
2023/06/13 05:27:54;;;;;;;11.70;4.72;;;;;;;;;;5073121;28;20040;-84
2023/06/13 05:30:21;;;;;;;9.45;4.30;;;17.00;67.90;;;;;;5074295;28;20044;-83
2023/06/13 05:32:47;;;;;;;5.38;3.97;;;;;;;;;;5056634;28;20139;-83
2023/06/13 05:35:13;;;;;;;6.78;3.85;;;;;;;;;;5073127;28;20036;-84
2023/06/13 05:37:39;;;;;;;9.70;4.38;;;;;;;;;;5056747;28;20056;-86
2023/06/13 05:40:06;;;;;;;9.38;4.20;;;17.30;70.60;;;;;;5055681;28;20111;-84
2023/06/13 05:42:36;;;;;;;7.22;5.00;;;17.30;67.30;;;;;;5039065;28;20037;-83
2023/06/13 05:45:07;;;;;;;7.10;4.40;;;17.40;70.20;;;;;;5072022;28;20505;-87
2023/06/13 05:47:33;;;;;;;5.68;4.43;;;17.40;70.00;;;;;;5055719;28;20107;-87
2023/06/13 05:49:59;;;;;;;9.98;3.80;;;;;;;;;;5055443;28;20136;-83
2023/06/13 05:52:25;;;;;;;8.23;4.05;;;17.40;70.00;;;;;;5072062;28;20043;-83
2023/06/13 05:54:52;;;;;;;4.72;4.00;;;17.40;70.50;;;;;;5055404;28;20059;-83
2023/06/13 05:57:18;;;;;;;7.88;4.10;;;;;;;;;;5055430;28;20044;-83
2023/06/13 05:59:44;;;;;;;8.50;3.67;;;;;;;;;;5038844;28;20083;-83
2023/06/13 06:02:11;;;;;;;4.47;4.07;;;17.60;66.10;;;;;;5072436;28;20090;-83
2023/06/13 06:04:37;;;;;;;11.98;4.07;;;;;;;;;;5073395;28;20047;-83
2023/06/13 06:07:04;;;;;;;4.70;3.70;;;17.70;69.80;;;;;;5072131;28;20040;-83
2023/06/13 06:09:30;;;;;;;7.93;3.42;;;17.80;66.00;;;;;;5038710;28;20087;-83
2023/06/13 06:11:56;;;;;;;7.65;3.65;;;;;;;;;;5055261;28;20079;-83
2023/06/13 06:14:22;;;;;;;6.75;3.72;;;18.20;66.20;;;;;;5071837;28;20408;-83
2023/06/13 06:16:51;;;;;;;7.88;3.35;;;18.10;63.00;;;;;;5038555;28;20127;-83
2023/06/13 06:19:17;;;;;;;5.75;3.55;;;;;;;;;;5038730;28;20052;-84
2023/06/13 06:21:43;;;;;;;3.90;3.08;;;;;;;;;;5055129;28;20123;-83
2023/06/13 06:24:09;;;;;;;4.45;3.35;;;;;;;;;;5055141;28;20489;-84
2023/06/13 06:26:35;;;;;;;10.30;4.13;;;18.50;67.00;;;;;;5055233;28;20534;-83
2023/06/13 06:29:01;;;;;;;8.50;4.07;;;;;;;;;;5055057;28;20075;-83
2023/06/13 06:31:27;;;;;;;4.05;3.40;;;;;;;;;;5072083;28;20071;-83
2023/06/13 06:33:53;;;;;;;4.13;3.33;;;18.80;66.10;;;;;;5055759;28;20032;-83
2023/06/13 06:36:22;;;;;;;8.65;3.40;;;18.80;62.50;;;;;;5075535;28;20066;-83
2023/06/13 06:38:49;;;;;;;9.77;3.78;;;19.00;66.00;;;;;;5075656;28;20043;-83
2023/06/13 06:41:16;;;;;;;5.97;3.10;;;;;;;;;;5043842;28;20481;-84
2023/06/13 06:43:42;;;;;;;5.20;3.00;;;18.80;64.90;;;;;;5043878;28;20051;-86
2023/06/13 06:46:08;;;;;;;8.88;3.30;;;;;;;;;;5060700;28;20048;-87
2023/06/13 06:48:34;;;;;;;8.95;3.50;;;;;;;;;;5061098;28;20052;-87
2023/06/13 06:51:00;;;;;;;5.18;2.85;;;19.30;63.80;;;;;;5061039;28;20105;-85
2023/06/13 06:53:25;;;;;;;6.85;3.70;;;19.50;62.70;;;;;;5044489;28;20028;-87
2023/06/13 06:55:51;;;;;;;5.22;3.10;;;19.60;62.80;;;;;;5044889;28;20043;-85
2023/06/13 06:58:19;;;;;;;5.90;3.25;;;;;;;;;;5060625;28;20518;-84
2023/06/13 07:00:46;;;;;;;3.42;2.90;;;;;;;;;;5076385;28;20131;-85
2023/06/13 07:03:12;;;;;;;7.80;3.75;;;;;;;;;;5044420;28;20041;-85
2023/06/13 07:05:38;;;;;;;4.63;3.40;;;;;;;;;;5060450;28;20041;-85
2023/06/13 07:08:04;;;;;;;4.15;2.95;;;;;;;;;;5060034;28;20083;-84
2023/06/13 07:10:30;;;;;;;5.85;2.13;;;20.00;55.50;;;;;;5061551;28;20045;-84
2023/06/13 07:12:56;;;;;;;5.45;2.17;;;20.00;54.30;;;;;;5058728;28;20173;-83
2023/06/13 07:15:23;;;;;;;3.83;2.03;;;;;;;;;;5075203;28;20512;-83
2023/06/13 07:17:50;;;;;;;9.05;2.70;;;;;;;;;;5058272;28;20055;-83
2023/06/13 07:20:16;;;;;;;6.47;2.00;;;20.20;49.70;;;;;;5058517;28;20053;-84
2023/06/13 07:22:42;;;;;;;4.78;1.83;;;20.50;48.40;;;;;;5058542;28;20043;-83
2023/06/13 07:25:08;;;;;;;5.55;3.00;;;;;;;;;;5058305;28;20044;-83
2023/06/13 07:27:34;;;;;;;2.83;2.17;;;;;;;;;;5058130;28;20121;-84
2023/06/13 07:30:00;;;;;;;2.83;2.15;;;20.70;49.80;;;;;;5058493;28;20048;-84
2023/06/13 07:32:26;;;;;;;4.85;2.85;;;20.80;48.40;;;;;;5058329;28;20044;-84
2023/06/13 07:34:52;;;;;;;2.95;2.40;;;;;;;;;;5058862;28;20455;-83
2023/06/13 07:37:19;;;;;;;4.15;2.42;;;21.00;47.90;;;;;;5041621;28;20041;-83
2023/06/13 07:39:45;;;;;;;4.35;2.47;;;21.10;46.70;;;;;;5058142;28;20048;-83
2023/06/13 07:42:11;;;;;;;15.77;2.50;;;21.00;47.30;;;;;;5058482;28;20037;-83
2023/06/13 07:44:37;;;;;;;3.05;2.47;;;21.50;48.20;;;;;;5041625;28;20044;-84
2023/06/13 07:47:03;;;;;;;3.25;2.42;;;21.30;46.20;;;;;;5058006;28;20057;-84
2023/06/13 07:49:30;;;;;;;5.80;2.33;;;;;;;;;;5041612;28;20106;-84
2023/06/13 07:51:56;;;;;;;7.95;2.50;;;21.40;43.80;;;;;;5074555;28;20041;-83
2023/06/13 07:54:22;;;;;;;6.07;2.83;;;21.60;47.10;;;;;;5057957;28;20067;-84
2023/06/13 07:56:49;;;;;;;7.60;2.58;;;;;;;;;;5041445;28;20405;-83
2023/06/13 07:59:15;;;;;;;4.15;3.75;;;21.70;44.60;;;;;;5057720;28;20051;-83
2023/06/13 08:01:41;;;;;;;4.05;2.85;;;21.90;49.00;;;;;;5057730;28;20041;-83
2023/06/13 08:04:07;;;;;;;4.13;2.65;;;21.90;47.30;;;;;;5057555;28;20052;-84
2023/06/13 08:06:33;;;;;;;4.55;2.33;;;22.00;47.90;;;;;;5024802;28;20032;-82
2023/06/13 08:08:58;;;;;;;3.95;2.42;;;22.00;48.00;;;;;;5074214;28;20050;-81
2023/06/13 08:11:24;;;;;;;3.45;2.58;;;22.20;48.20;;;;;;5024634;28;20040;-81
2023/06/13 08:13:50;;;;;;;8.63;3.60;;;22.40;48.80;;;;;;5041047;28;20041;-81
2023/06/13 08:16:16;;;;;;;8.20;3.10;;;22.30;46.70;;;;;;5040719;28;20512;-81
2023/06/13 08:18:43;;;;;;;6.57;3.10;;;;;;;;;;5073866;28;20053;-81
2023/06/13 08:21:08;;;;;;;3.58;2.78;;;22.40;44.70;;;;;;5057625;28;20099;-82
2023/06/13 08:23:34;;;;;;;3.28;2.97;;;22.60;47.30;;;;;;5041654;28;20435;-84
2023/06/13 08:26:00;;;;;;;5.70;2.67;;;22.80;47.10;;;;;;5075596;28;20080;-85
2023/06/13 08:28:25;;;;;;;7.30;3.05;;;22.90;46.10;;;;;;5058146;28;20051;-87
2023/06/13 08:30:52;;;;;;;5.45;3.22;;;22.90;46.10;;;;;;5058481;28;20084;-85
2023/06/13 08:33:18;;;;;;;6.50;3.53;;;23.00;45.60;;;;;;5043285;28;20083;-84
2023/06/13 08:35:44;;;;;;;6.53;4.15;;;23.00;45.40;;;;;;5041241;28;20041;-85
2023/06/13 08:38:11;;;;;;;6.22;3.45;;;23.10;46.30;;;;;;5058135;28;20095;-85
2023/06/13 08:40:37;;;;;;;4.57;2.80;;;23.40;44.80;;;;;;5053235;28;20052;-84
2023/06/13 08:43:03;;;;;;;8.07;3.35;;;23.30;44.90;;;;;;5055009;28;20127;-86
2023/06/13 08:45:29;;;;;;;5.45;3.58;;;23.50;45.80;;;;;;5053531;28;20054;-83
2023/06/13 08:47:55;;;;;;;4.47;3.20;;;23.60;45.10;;;;;;5038137;28;20076;-85
2023/06/13 08:50:24;;;;;;;5.43;3.60;;;23.80;45.30;;;;;;5038676;28;20051;-88
2023/06/13 08:52:50;;;;;;;8.02;3.17;;;23.70;44.80;;;;;;5055969;28;20037;-87
2023/06/13 08:55:21;;;;;;;4.20;3.42;;;23.70;43.70;;;;;;5062735;28;20048;-89
2023/06/13 08:57:52;;;;;;;7.68;3.50;;;23.50;44.00;;;;;;5078992;28;20048;-87
2023/06/13 09:00:19;;;;;;;6.65;3.17;;;24.00;44.10;;;;;;5081731;28;20131;-85
2023/06/13 09:02:46;;;;;;;5.63;3.53;;;24.10;44.00;;;;;;5045136;28;20037;-84
2023/06/13 09:05:15;;;;;;;3.95;3.08;;;24.10;44.10;;;;;;5061741;28;20063;-87
2023/06/13 09:07:50;;;;;;;8.02;3.70;;;24.10;44.70;;;;;;5056660;28;20500;-84
2023/06/13 09:10:16;;;;;;;4.63;4.18;;;24.70;42.20;;;;;;5070789;28;20044;-85
2023/06/13 09:12:45;;;;;;;11.57;3.30;;;24.30;43.60;;;;;;5056539;28;20047;-83
2023/06/13 09:15:11;;;;;;;3.80;3.33;;;24.30;43.50;;;;;;5072801;28;20404;-83
2023/06/13 09:17:37;;;;;;;4.03;3.22;;;24.40;43.30;;;;;;5056071;28;20135;-84
2023/06/13 09:20:07;;;;;;;4.43;3.20;;;24.50;42.30;;;;;;5072830;28;20127;-83
2023/06/13 09:22:34;;;;;;;5.60;3.60;;;24.50;41.50;;;;;;5056417;28;20043;-84
2023/06/13 09:25:01;;;;;;;6.25;3.58;;;24.10;41.30;;;;;;5039302;28;20136;-84
2023/06/13 09:27:27;;;;;;;3.80;3.20;;;24.50;41.50;;;;;;5055885;28;20059;-83
2023/06/13 09:29:53;;;;;;;5.20;3.13;;;24.60;42.70;;;;;;5055814;28;20130;-83
2023/06/13 09:32:22;;;;;;;4.68;3.40;;;24.70;42.50;;;;;;5039027;28;20080;-84
2023/06/13 09:34:51;;;;;;;7.57;3.35;;;24.80;42.10;;;;;;5055912;28;20048;-85
2023/06/13 09:37:17;;;;;;;4.72;3.40;;;24.50;42.80;;;;;;5072148;28;20061;-84
2023/06/13 09:39:53;;;;;;;11.00;3.33;;;24.90;42.00;;;;;;5055421;28;20040;-85
2023/06/13 09:42:21;;;;;;;7.90;3.92;;;24.90;42.60;;;;;;5055640;28;20040;-82
2023/06/13 09:44:51;;;;;;;3.72;2.97;;;25.80;43.10;;;;;;5039177;28;20526;-82
2023/06/13 09:47:22;;;;;;;4.68;2.97;;;25.20;41.20;;;;;;5056094;28;20071;-81
2023/06/13 09:49:53;;;;;;;9.15;3.25;;;24.90;41.40;;;;;;5055302;28;20139;-81
2023/06/13 09:52:23;;;;;;;4.53;3.10;;;25.10;42.90;;;;;;5055813;28;20045;-82
2023/06/13 09:54:49;;;;;;;6.28;3.25;;;25.50;42.60;;;;;;5055352;28;20044;-82
2023/06/13 09:57:14;;;;;;;2.92;2.45;;;25.10;41.70;;;;;;5023088;28;20040;-84
2023/06/13 09:59:41;;;;;;;6.28;2.88;;;25.20;39.50;;;;;;5055528;28;20135;-82
2023/06/13 10:02:07;;;;;;;4.07;3.13;;;25.30;40.00;;;;;;5055718;28;20044;-82
2023/06/13 10:04:33;;;;;;;4.20;3.50;;;25.30;40.90;;;;;;5023203;28;20497;-82
2023/06/13 10:06:59;;;;;;;6.88;2.90;;;25.40;41.80;;;;;;5055548;28;20040;-81
2023/06/13 10:09:25;;;;;;;8.05;3.38;;;25.40;42.60;;;;;;5037723;28;20051;-82
2023/06/13 10:11:53;;;;;;;6.00;2.92;;;25.40;41.80;;;;;;5072052;28;20045;-83
2023/06/13 10:14:22;;;;;;;3.83;2.78;;;25.40;38.80;;;;;;5055569;28;20048;-83
2023/06/13 10:17:01;;;;;;;5.28;2.75;;;25.40;39.10;;;;;;5055284;28;20072;-84
2023/06/13 10:19:27;;;;;;;3.70;2.63;;;25.30;39.10;;;;;;5055544;28;20425;-82
2023/06/13 10:21:53;;;;;;;8.23;3.33;;;25.40;41.60;;;;;;5022310;28;20090;-83
2023/06/13 10:24:21;;;;;;;4.50;2.63;;;25.30;42.80;;;;;;5055273;28;20488;-82
2023/06/13 10:26:48;;;;;;;7.10;2.50;;;25.10;45.30;;;;;;5038533;28;20043;-83
2023/06/13 10:29:20;;;;;;;3.35;2.50;;;25.60;46.40;;;;;;5055304;28;20091;-83
2023/06/13 10:32:05;;;;;;;5.47;2.30;;;25.80;44.70;;;;;;5055480;28;20036;-84
2023/06/13 10:35:01;;;;;;;5.10;2.75;;;25.70;44.30;;;;;;5071805;28;20083;-83
2023/06/13 10:37:42;;;;;;;5.53;2.70;;;25.70;46.90;;;;;;5054932;28;20088;-85
2023/06/13 10:40:29;;;;;;;4.40;2.55;;;25.80;46.90;;;;;;5055091;28;20088;-84
2023/06/13 10:43:06;;;;;;;4.25;2.60;;;25.80;46.40;;;;;;5071926;28;20052;-83
2023/06/13 10:45:34;;;;;;;5.38;2.42;;;25.90;48.50;;;;;;5071783;28;20056;-85
2023/06/13 10:48:06;;;;;;;11.77;3.25;;;25.70;48.40;;;;;;5038900;28;20170;-82
2023/06/13 10:50:40;;;;;;;7.53;2.80;;;25.70;49.60;;;;;;5054958;28;20040;-82
2023/06/13 10:53:09;;;;;;;2.97;2.33;;;25.70;48.90;;;;;;5071694;28;20397;-81
2023/06/13 10:55:38;;;;;;;4.95;2.67;;;25.80;48.40;;;;;;5054827;28;20086;-82
2023/06/13 10:58:12;;;;;;;11.65;2.40;;;25.50;48.10;;;;;;5071381;28;20109;-81
2023/06/13 11:00:39;;;;;;;6.05;2.80;;;25.70;49.60;;;;;;5054755;28;20048;-81
2023/06/13 11:03:08;;;;;;;6.85;3.10;;;25.90;49.10;;;;;;5054690;28;20036;-81
2023/06/13 11:05:52;;;;;;;3.65;2.78;;;25.70;48.60;;;;;;5054655;28;20509;-83
2023/06/13 11:08:25;;;;;;;5.55;2.67;;;25.60;47.10;;;;;;5054471;28;20136;-81
2023/06/13 11:10:53;;;;;;;4.67;2.43;;;25.60;47.50;;;;;;5054698;28;20053;-82
2023/06/13 11:13:27;;;;;;;7.57;2.70;;;25.60;48.50;;;;;;5054826;28;20040;-82
2023/06/13 11:15:55;;;;;;;2.63;2.22;;;25.80;48.70;;;;;;5071275;28;20080;-82
2023/06/13 11:18:21;;;;;;;4.65;2.83;;;25.70;48.70;;;;;;5054635;28;20048;-82
2023/06/13 11:20:48;;;;;;;4.70;2.65;;;25.60;48.70;;;;;;5055653;28;20056;-82
2023/06/13 11:23:15;;;;;;;3.67;2.53;;;25.60;48.80;;;;;;5074879;28;20045;-82
2023/06/13 11:25:42;;;;;;;4.75;2.50;;;25.70;48.50;;;;;;5058199;28;20053;-82
2023/06/13 11:28:08;;;;;;;3.92;2.67;;;25.40;48.60;;;;;;5025345;28;20040;-82
2023/06/13 11:30:34;;;;;;;3.53;2.53;;;25.80;48.80;;;;;;5058142;28;20048;-82
2023/06/13 11:33:00;;;;;;;6.65;2.42;;;25.60;48.70;;;;;;5025166;28;20036;-81
2023/06/13 11:35:28;;;;;;;6.90;2.45;;;23.30;47.50;;;;;;5041372;28;20182;-82
2023/06/13 11:38:01;;;;;;;5.38;2.42;;;25.60;49.20;;;;;;5074508;28;20503;-81
2023/06/13 11:40:39;;;;;;;5.45;2.53;;;25.90;49.40;;;;;;5074579;28;20052;-81
2023/06/13 11:43:05;;;;;;;3.65;2.35;;;25.80;49.00;;;;;;5058292;28;20482;-83
2023/06/13 11:45:31;;;;;;;5.10;2.42;;;25.70;49.00;;;;;;5058089;28;20064;-83
2023/06/13 11:48:01;;;;;;;7.25;2.65;;;25.70;49.40;;;;;;5057889;28;20045;-85
2023/06/13 11:50:27;;;;;;;3.90;2.60;;;25.90;49.10;;;;;;5057793;28;20051;-82
2023/06/13 11:53:07;;;;;;;7.10;2.70;;;25.80;48.90;;;;;;5057987;28;20044;-82
2023/06/13 11:55:33;;;;;;;7.85;2.47;;;25.90;48.00;;;;;;5058639;28;20110;-82
2023/06/13 11:57:59;;;;;;;2.42;2.00;;;25.80;49.20;;;;;;5058199;28;20044;-82
2023/06/13 12:00:28;;;;;;;5.65;2.40;;;25.70;48.60;;;;;;5041036;28;20044;-82
2023/06/13 12:02:54;;;;;;;3.88;2.35;;;25.60;46.80;;;;;;5041846;28;20044;-83
2023/06/13 12:05:20;;;;;;;10.65;2.88;;;25.90;48.30;;;;;;5074204;28;20049;-83
2023/06/13 12:07:46;;;;;;;8.60;2.03;;;26.20;49.00;;;;;;5040808;28;20058;-82
2023/06/13 12:10:13;;;;;;;4.00;2.60;;;25.90;48.50;;;;;;5040705;28;20049;-82
2023/06/13 12:12:39;;;;;;;6.28;2.40;;;25.90;48.80;;;;;;5057558;28;20040;-82
2023/06/13 12:15:07;;;;;;;3.17;2.38;;;26.00;48.80;;;;;;5057490;28;20040;-81
2023/06/13 12:17:33;;;;;;;4.95;2.28;;;26.20;47.90;;;;;;5073997;28;20048;-82
2023/06/13 12:20:07;;;;;;;7.05;2.13;;;26.00;48.20;;;;;;5040379;28;20062;-81
2023/06/13 12:22:33;;;;;;;3.65;2.00;;;26.10;48.70;;;;;;5057716;28;20515;-82
2023/06/13 12:24:59;;;;;;;6.13;2.15;;;26.00;48.70;;;;;;5040482;28;20040;-82
2023/06/13 12:27:26;;;;;;;4.47;2.35;;;25.90;49.20;;;;;;5040457;28;20051;-82
2023/06/13 12:29:52;;;;;;;5.45;2.45;;;25.90;49.00;;;;;;5057126;28;20434;-82
2023/06/13 12:32:22;;;;;;;6.60;2.30;;;25.90;48.70;;;;;;5072753;28;20045;-82
2023/06/13 12:34:48;;;;;;;3.78;2.15;;;26.50;49.30;;;;;;5073792;28;20523;-83
2023/06/13 12:37:14;;;;;;;5.22;1.88;;;27.00;49.80;;;;;;5057026;28;20122;-82
2023/06/13 12:40:09;;;;;;;6.43;2.30;;;26.30;48.90;;;;;;5040027;28;20489;-82
2023/06/13 12:42:35;;;;;;;3.78;1.83;;;26.10;47.70;;;;;;5057555;28;20110;-82
2023/06/13 12:45:02;;;;;;;4.03;2.20;;;26.20;49.10;;;;;;5056687;28;20520;-82
2023/06/13 12:47:27;;;;;;;6.43;2.33;;;26.40;49.60;;;;;;5056563;28;20064;-82
2023/06/13 12:50:06;;;;;;;9.93;2.17;;;26.20;49.70;;;;;;5073134;28;20053;-83
2023/06/13 12:52:32;;;;;;;2.58;1.90;;;26.10;49.30;;;;;;5056410;28;20040;-82
2023/06/13 12:55:02;;;;;;;6.00;1.95;;;26.10;49.50;;;;;;5056420;28;20068;-84
2023/06/13 12:57:28;;;;;;;7.00;2.05;;;26.50;49.60;;;;;;5056733;28;20083;-82
2023/06/13 12:59:53;;;;;;;4.10;2.00;;;26.10;48.80;;;;;;5056298;28;20079;-84
2023/06/13 13:02:23;;;;;;;3.42;1.98;;;26.20;49.00;;;;;;5039865;28;20076;-82
2023/06/13 13:04:58;;;;;;;3.60;2.05;;;26.30;48.80;;;;;;5073067;28;20430;-83
2023/06/13 13:07:25;;;;;;;2.67;1.90;;;26.20;48.90;;;;;;5040990;28;20051;-82
2023/06/13 13:09:51;;;;;;;11.05;2.33;;;26.50;49.70;;;;;;5039862;28;20040;-82
2023/06/13 13:12:18;;;;;;;4.53;1.98;;;26.20;49.40;;;;;;5039739;28;20044;-82
2023/06/13 13:14:44;;;;;;;5.53;2.17;;;26.50;48.90;;;;;;5023149;28;20055;-83
2023/06/13 13:17:10;;;;;;;3.25;1.98;;;26.40;48.60;;;;;;5056009;28;20087;-82
2023/06/13 13:19:36;;;;;;;3.95;2.53;;;26.30;48.90;;;;;;5039408;28;20080;-82
2023/06/13 13:22:02;;;;;;;7.53;2.45;;;26.20;48.50;;;;;;5039549;28;20412;-82